sensor_id;sensor_type;location;lat;lon;timestamp;P1;durP1;ratioP1;P2;durP2;ratioP2
2225;SDS011;1119;48.288;8.726;2023-02-15T00:01:40;12.17;;;10.27;;
2225;SDS011;1119;48.288;8.726;2023-02-15T00:04:08;10.97;;;9.83;;
2225;SDS011;1119;48.288;8.726;2023-02-15T00:06:39;15.30;;;11.30;;
2225;SDS011;1119;48.288;8.726;2023-02-15T00:09:08;12.47;;;10.40;;
2225;SDS011;1119;48.288;8.726;2023-02-15T00:11:36;14.33;;;12.33;;
2225;SDS011;1119;48.288;8.726;2023-02-15T00:14:08;13.13;;;11.43;;
2225;SDS011;1119;48.288;8.726;2023-02-15T00:16:38;19.83;;;12.90;;
2225;SDS011;1119;48.288;8.726;2023-02-15T00:19:07;13.20;;;10.30;;
2225;SDS011;1119;48.288;8.726;2023-02-15T00:21:35;14.73;;;10.80;;
2225;SDS011;1119;48.288;8.726;2023-02-15T00:24:04;15.63;;;12.00;;
2225;SDS011;1119;48.288;8.726;2023-02-15T00:26:34;16.48;;;11.45;;
2225;SDS011;1119;48.288;8.726;2023-02-15T00:29:03;15.70;;;12.60;;
2225;SDS011;1119;48.288;8.726;2023-02-15T00:31:32;13.63;;;10.35;;
2225;SDS011;1119;48.288;8.726;2023-02-15T00:34:01;13.25;;;10.75;;
2225;SDS011;1119;48.288;8.726;2023-02-15T00:36:29;17.77;;;13.60;;
2225;SDS011;1119;48.288;8.726;2023-02-15T00:38:57;13.32;;;11.43;;
2225;SDS011;1119;48.288;8.726;2023-02-15T00:41:26;16.17;;;11.15;;
2225;SDS011;1119;48.288;8.726;2023-02-15T00:43:53;13.40;;;11.43;;
2225;SDS011;1119;48.288;8.726;2023-02-15T00:46:20;13.45;;;10.60;;
2225;SDS011;1119;48.288;8.726;2023-02-15T00:48:48;19.80;;;13.40;;
2225;SDS011;1119;48.288;8.726;2023-02-15T00:51:15;15.73;;;10.48;;
2225;SDS011;1119;48.288;8.726;2023-02-15T00:53:42;11.63;;;9.70;;
2225;SDS011;1119;48.288;8.726;2023-02-15T00:56:10;11.90;;;10.13;;
2225;SDS011;1119;48.288;8.726;2023-02-15T00:58:39;14.82;;;9.52;;
2225;SDS011;1119;48.288;8.726;2023-02-15T01:01:09;15.27;;;12.63;;
2225;SDS011;1119;48.288;8.726;2023-02-15T01:03:39;13.25;;;11.00;;
2225;SDS011;1119;48.288;8.726;2023-02-15T01:06:08;11.35;;;10.35;;
2225;SDS011;1119;48.288;8.726;2023-02-15T01:08:36;12.63;;;10.75;;
2225;SDS011;1119;48.288;8.726;2023-02-15T01:11:04;12.60;;;9.70;;
2225;SDS011;1119;48.288;8.726;2023-02-15T01:13:34;19.15;;;11.85;;
2225;SDS011;1119;48.288;8.726;2023-02-15T01:16:03;19.20;;;12.27;;
2225;SDS011;1119;48.288;8.726;2023-02-15T01:18:31;15.70;;;12.90;;
2225;SDS011;1119;48.288;8.726;2023-02-15T01:20:59;17.07;;;11.90;;
2225;SDS011;1119;48.288;8.726;2023-02-15T01:23:26;14.67;;;10.67;;
2225;SDS011;1119;48.288;8.726;2023-02-15T01:25:53;15.73;;;11.30;;
2225;SDS011;1119;48.288;8.726;2023-02-15T01:28:21;17.23;;;13.50;;
2225;SDS011;1119;48.288;8.726;2023-02-15T01:30:48;13.03;;;10.47;;
2225;SDS011;1119;48.288;8.726;2023-02-15T01:33:17;17.80;;;10.52;;
2225;SDS011;1119;48.288;8.726;2023-02-15T01:35:45;12.13;;;10.25;;
2225;SDS011;1119;48.288;8.726;2023-02-15T01:38:14;12.23;;;11.13;;
2225;SDS011;1119;48.288;8.726;2023-02-15T01:40:41;11.95;;;10.07;;
2225;SDS011;1119;48.288;8.726;2023-02-15T01:43:11;11.07;;;10.02;;
2225;SDS011;1119;48.288;8.726;2023-02-15T01:45:38;15.75;;;11.48;;
2225;SDS011;1119;48.288;8.726;2023-02-15T01:48:14;14.48;;;8.55;;
2225;SDS011;1119;48.288;8.726;2023-02-15T01:50:51;11.85;;;10.65;;
2225;SDS011;1119;48.288;8.726;2023-02-15T01:53:24;10.95;;;9.52;;
2225;SDS011;1119;48.288;8.726;2023-02-15T01:55:55;11.27;;;8.40;;
2225;SDS011;1119;48.288;8.726;2023-02-15T01:58:27;10.07;;;8.98;;
2225;SDS011;1119;48.288;8.726;2023-02-15T02:00:56;14.07;;;8.15;;
2225;SDS011;1119;48.288;8.726;2023-02-15T02:03:30;12.65;;;7.80;;
2225;SDS011;1119;48.288;8.726;2023-02-15T02:06:07;8.93;;;8.13;;
2225;SDS011;1119;48.288;8.726;2023-02-15T02:08:34;11.23;;;7.85;;
2225;SDS011;1119;48.288;8.726;2023-02-15T02:11:02;11.00;;;7.93;;
2225;SDS011;1119;48.288;8.726;2023-02-15T02:13:31;8.33;;;7.33;;
2225;SDS011;1119;48.288;8.726;2023-02-15T02:16:00;8.80;;;7.13;;
2225;SDS011;1119;48.288;8.726;2023-02-15T02:18:40;10.13;;;8.80;;
2225;SDS011;1119;48.288;8.726;2023-02-15T02:27:44;12.00;;;7.40;;
2225;SDS011;1119;48.288;8.726;2023-02-15T02:30:27;9.60;;;8.60;;
2225;SDS011;1119;48.288;8.726;2023-02-15T02:33:29;8.02;;;7.07;;
2225;SDS011;1119;48.288;8.726;2023-02-15T02:36:08;9.30;;;8.23;;
2225;SDS011;1119;48.288;8.726;2023-02-15T02:38:57;13.23;;;8.68;;
2225;SDS011;1119;48.288;8.726;2023-02-15T02:41:42;6.75;;;6.07;;
2225;SDS011;1119;48.288;8.726;2023-02-15T02:44:19;11.60;;;9.05;;
2225;SDS011;1119;48.288;8.726;2023-02-15T02:46:53;7.63;;;6.87;;
2225;SDS011;1119;48.288;8.726;2023-02-15T02:49:33;7.20;;;6.47;;
2225;SDS011;1119;48.288;8.726;2023-02-15T02:52:03;9.70;;;6.32;;
2225;SDS011;1119;48.288;8.726;2023-02-15T02:54:34;8.70;;;7.00;;
2225;SDS011;1119;48.288;8.726;2023-02-15T02:57:03;6.63;;;6.03;;
2225;SDS011;1119;48.288;8.726;2023-02-15T02:59:36;9.83;;;8.43;;
2225;SDS011;1119;48.288;8.726;2023-02-15T03:02:10;12.17;;;7.93;;
2225;SDS011;1119;48.288;8.726;2023-02-15T03:04:43;11.07;;;8.43;;
2225;SDS011;1119;48.288;8.726;2023-02-15T03:07:15;12.25;;;8.77;;
2225;SDS011;1119;48.288;8.726;2023-02-15T03:09:48;10.77;;;7.50;;
2225;SDS011;1119;48.288;8.726;2023-02-15T03:12:19;9.93;;;6.88;;
2225;SDS011;1119;48.288;8.726;2023-02-15T03:14:51;10.43;;;8.23;;
2225;SDS011;1119;48.288;8.726;2023-02-15T03:17:22;11.07;;;8.27;;
2225;SDS011;1119;48.288;8.726;2023-02-15T03:19:55;9.73;;;7.60;;
2225;SDS011;1119;48.288;8.726;2023-02-15T03:22:28;9.20;;;6.15;;
2225;SDS011;1119;48.288;8.726;2023-02-15T03:25:02;9.35;;;8.38;;
2225;SDS011;1119;48.288;8.726;2023-02-15T03:27:37;7.57;;;6.50;;
2225;SDS011;1119;48.288;8.726;2023-02-15T03:30:09;9.02;;;7.25;;
2225;SDS011;1119;48.288;8.726;2023-02-15T03:32:38;8.50;;;6.95;;
2225;SDS011;1119;48.288;8.726;2023-02-15T03:35:09;6.28;;;5.50;;
2225;SDS011;1119;48.288;8.726;2023-02-15T03:37:37;7.43;;;6.50;;
2225;SDS011;1119;48.288;8.726;2023-02-15T03:40:09;6.80;;;6.20;;
2225;SDS011;1119;48.288;8.726;2023-02-15T03:43:00;7.68;;;6.32;;
2225;SDS011;1119;48.288;8.726;2023-02-15T03:45:37;7.65;;;6.28;;
2225;SDS011;1119;48.288;8.726;2023-02-15T03:48:20;6.90;;;5.80;;
2225;SDS011;1119;48.288;8.726;2023-02-15T03:50:55;7.35;;;6.55;;
2225;SDS011;1119;48.288;8.726;2023-02-15T03:53:44;8.95;;;7.53;;
2225;SDS011;1119;48.288;8.726;2023-02-15T03:56:13;6.82;;;6.25;;
2225;SDS011;1119;48.288;8.726;2023-02-15T03:58:41;10.68;;;6.85;;
2225;SDS011;1119;48.288;8.726;2023-02-15T04:01:27;15.20;;;6.57;;
2225;SDS011;1119;48.288;8.726;2023-02-15T04:04:24;6.57;;;5.50;;
2225;SDS011;1119;48.288;8.726;2023-02-15T04:06:58;5.80;;;5.40;;
2225;SDS011;1119;48.288;8.726;2023-02-15T04:09:25;8.18;;;5.85;;
2225;SDS011;1119;48.288;8.726;2023-02-15T04:12:10;8.75;;;6.32;;
2225;SDS011;1119;48.288;8.726;2023-02-15T04:14:37;12.63;;;7.65;;
2225;SDS011;1119;48.288;8.726;2023-02-15T04:17:22;8.00;;;6.47;;
2225;SDS011;1119;48.288;8.726;2023-02-15T04:19:50;9.93;;;7.25;;
2225;SDS011;1119;48.288;8.726;2023-02-15T04:22:36;7.90;;;6.55;;
2225;SDS011;1119;48.288;8.726;2023-02-15T04:25:21;8.57;;;6.00;;
2225;SDS011;1119;48.288;8.726;2023-02-15T04:27:50;8.93;;;6.85;;
2225;SDS011;1119;48.288;8.726;2023-02-15T04:30:20;5.68;;;5.15;;
2225;SDS011;1119;48.288;8.726;2023-02-15T04:32:49;10.40;;;5.72;;
2225;SDS011;1119;48.288;8.726;2023-02-15T04:35:17;7.45;;;6.28;;
2225;SDS011;1119;48.288;8.726;2023-02-15T04:37:46;5.25;;;4.50;;
2225;SDS011;1119;48.288;8.726;2023-02-15T04:40:14;4.93;;;4.47;;
2225;SDS011;1119;48.288;8.726;2023-02-15T04:42:42;7.85;;;6.55;;
2225;SDS011;1119;48.288;8.726;2023-02-15T04:45:09;6.00;;;5.40;;
2225;SDS011;1119;48.288;8.726;2023-02-15T04:47:36;7.28;;;4.93;;
2225;SDS011;1119;48.288;8.726;2023-02-15T04:50:04;7.80;;;7.10;;
2225;SDS011;1119;48.288;8.726;2023-02-15T04:52:32;8.20;;;5.32;;
2225;SDS011;1119;48.288;8.726;2023-02-15T04:55:01;6.68;;;6.00;;
2225;SDS011;1119;48.288;8.726;2023-02-15T04:57:29;10.52;;;4.68;;
2225;SDS011;1119;48.288;8.726;2023-02-15T04:59:56;5.50;;;5.00;;
2225;SDS011;1119;48.288;8.726;2023-02-15T05:02:24;9.70;;;6.18;;
2225;SDS011;1119;48.288;8.726;2023-02-15T05:04:51;12.85;;;7.18;;
2225;SDS011;1119;48.288;8.726;2023-02-15T05:07:18;5.97;;;5.18;;
2225;SDS011;1119;48.288;8.726;2023-02-15T05:09:46;16.48;;;6.55;;
2225;SDS011;1119;48.288;8.726;2023-02-15T05:12:15;6.32;;;5.28;;
2225;SDS011;1119;48.288;8.726;2023-02-15T05:14:42;8.32;;;6.22;;
2225;SDS011;1119;48.288;8.726;2023-02-15T05:17:09;8.23;;;6.18;;
2225;SDS011;1119;48.288;8.726;2023-02-15T05:19:37;9.07;;;6.55;;
2225;SDS011;1119;48.288;8.726;2023-02-15T05:22:04;5.57;;;5.03;;
2225;SDS011;1119;48.288;8.726;2023-02-15T05:24:31;6.95;;;5.88;;
2225;SDS011;1119;48.288;8.726;2023-02-15T05:27:17;9.60;;;7.22;;
2225;SDS011;1119;48.288;8.726;2023-02-15T05:30:03;6.78;;;6.13;;
2225;SDS011;1119;48.288;8.726;2023-02-15T05:32:36;5.95;;;5.43;;
2225;SDS011;1119;48.288;8.726;2023-02-15T05:35:04;10.77;;;7.25;;
2225;SDS011;1119;48.288;8.726;2023-02-15T05:37:33;7.13;;;6.53;;
2225;SDS011;1119;48.288;8.726;2023-02-15T05:40:00;8.65;;;6.38;;
2225;SDS011;1119;48.288;8.726;2023-02-15T05:42:29;10.43;;;5.95;;
2225;SDS011;1119;48.288;8.726;2023-02-15T05:44:56;12.57;;;7.88;;
2225;SDS011;1119;48.288;8.726;2023-02-15T05:47:23;9.25;;;7.07;;
2225;SDS011;1119;48.288;8.726;2023-02-15T05:49:51;7.95;;;6.65;;
2225;SDS011;1119;48.288;8.726;2023-02-15T05:52:18;12.10;;;5.23;;
2225;SDS011;1119;48.288;8.726;2023-02-15T05:54:45;6.55;;;5.95;;
2225;SDS011;1119;48.288;8.726;2023-02-15T05:57:13;5.45;;;4.80;;
2225;SDS011;1119;48.288;8.726;2023-02-15T05:59:42;5.72;;;5.30;;
2225;SDS011;1119;48.288;8.726;2023-02-15T06:02:09;10.00;;;6.00;;
2225;SDS011;1119;48.288;8.726;2023-02-15T06:04:36;9.77;;;7.22;;
2225;SDS011;1119;48.288;8.726;2023-02-15T06:07:04;7.00;;;5.10;;
2225;SDS011;1119;48.288;8.726;2023-02-15T06:09:31;7.00;;;6.28;;
2225;SDS011;1119;48.288;8.726;2023-02-15T06:11:58;6.57;;;5.75;;
2225;SDS011;1119;48.288;8.726;2023-02-15T06:14:26;10.45;;;6.35;;
2225;SDS011;1119;48.288;8.726;2023-02-15T06:16:54;7.28;;;6.57;;
2225;SDS011;1119;48.288;8.726;2023-02-15T06:19:21;6.22;;;4.60;;
2225;SDS011;1119;48.288;8.726;2023-02-15T06:21:49;5.55;;;5.13;;
2225;SDS011;1119;48.288;8.726;2023-02-15T06:24:16;6.63;;;4.50;;
2225;SDS011;1119;48.288;8.726;2023-02-15T06:26:43;6.70;;;5.10;;
2225;SDS011;1119;48.288;8.726;2023-02-15T06:29:11;6.47;;;5.60;;
2225;SDS011;1119;48.288;8.726;2023-02-15T06:31:38;5.72;;;5.07;;
2225;SDS011;1119;48.288;8.726;2023-02-15T06:34:07;10.07;;;5.68;;
2225;SDS011;1119;48.288;8.726;2023-02-15T06:36:35;5.20;;;4.70;;
2225;SDS011;1119;48.288;8.726;2023-02-15T06:39:02;8.60;;;5.32;;
2225;SDS011;1119;48.288;8.726;2023-02-15T06:41:30;5.60;;;5.07;;
2225;SDS011;1119;48.288;8.726;2023-02-15T06:43:57;6.05;;;5.45;;
2225;SDS011;1119;48.288;8.726;2023-02-15T06:46:25;5.67;;;5.03;;
2225;SDS011;1119;48.288;8.726;2023-02-15T06:49:00;6.90;;;5.50;;
2225;SDS011;1119;48.288;8.726;2023-02-15T06:51:29;7.40;;;6.70;;
2225;SDS011;1119;48.288;8.726;2023-02-15T06:53:56;9.97;;;6.87;;
2225;SDS011;1119;48.288;8.726;2023-02-15T06:56:24;6.82;;;6.22;;
2225;SDS011;1119;48.288;8.726;2023-02-15T06:58:51;6.13;;;5.53;;
2225;SDS011;1119;48.288;8.726;2023-02-15T07:01:18;14.30;;;5.03;;
2225;SDS011;1119;48.288;8.726;2023-02-15T07:03:45;6.17;;;5.00;;
2225;SDS011;1119;48.288;8.726;2023-02-15T07:06:13;5.00;;;4.70;;
2225;SDS011;1119;48.288;8.726;2023-02-15T07:08:41;6.17;;;5.03;;
2225;SDS011;1119;48.288;8.726;2023-02-15T07:11:09;9.30;;;6.57;;
2225;SDS011;1119;48.288;8.726;2023-02-15T07:13:53;6.40;;;5.80;;
2225;SDS011;1119;48.288;8.726;2023-02-15T07:16:20;10.57;;;6.93;;
2225;SDS011;1119;48.288;8.726;2023-02-15T07:18:48;15.20;;;6.70;;
2225;SDS011;1119;48.288;8.726;2023-02-15T07:21:15;9.20;;;7.83;;
2225;SDS011;1119;48.288;8.726;2023-02-15T07:23:44;7.63;;;5.93;;
2225;SDS011;1119;48.288;8.726;2023-02-15T07:26:11;6.77;;;6.07;;
2225;SDS011;1119;48.288;8.726;2023-02-15T07:28:38;7.23;;;6.07;;
2225;SDS011;1119;48.288;8.726;2023-02-15T07:31:06;9.73;;;7.10;;
2225;SDS011;1119;48.288;8.726;2023-02-15T07:33:33;9.53;;;6.10;;
2225;SDS011;1119;48.288;8.726;2023-02-15T07:36:02;7.80;;;6.20;;
2225;SDS011;1119;48.288;8.726;2023-02-15T07:38:31;10.30;;;6.87;;
2225;SDS011;1119;48.288;8.726;2023-02-15T07:41:03;5.07;;;4.67;;
2225;SDS011;1119;48.288;8.726;2023-02-15T07:43:32;6.93;;;6.23;;
2225;SDS011;1119;48.288;8.726;2023-02-15T07:46:02;8.23;;;7.00;;
2225;SDS011;1119;48.288;8.726;2023-02-15T07:48:32;7.30;;;5.97;;
2225;SDS011;1119;48.288;8.726;2023-02-15T07:51:00;8.53;;;6.30;;
2225;SDS011;1119;48.288;8.726;2023-02-15T07:53:30;7.17;;;6.30;;
2225;SDS011;1119;48.288;8.726;2023-02-15T07:55:58;5.60;;;5.10;;
2225;SDS011;1119;48.288;8.726;2023-02-15T07:58:27;7.00;;;6.40;;
2225;SDS011;1119;48.288;8.726;2023-02-15T08:01:08;8.57;;;6.30;;
2225;SDS011;1119;48.288;8.726;2023-02-15T08:03:35;5.53;;;5.10;;
2225;SDS011;1119;48.288;8.726;2023-02-15T08:06:02;5.80;;;5.13;;
2225;SDS011;1119;48.288;8.726;2023-02-15T08:08:30;6.00;;;5.40;;
2225;SDS011;1119;48.288;8.726;2023-02-15T08:11:01;8.20;;;5.40;;
2225;SDS011;1119;48.288;8.726;2023-02-15T08:13:50;6.30;;;5.07;;
2225;SDS011;1119;48.288;8.726;2023-02-15T08:16:22;8.87;;;5.17;;
2225;SDS011;1119;48.288;8.726;2023-02-15T08:18:50;7.20;;;4.47;;
2225;SDS011;1119;48.288;8.726;2023-02-15T08:21:18;5.17;;;3.90;;
2225;SDS011;1119;48.288;8.726;2023-02-15T08:23:45;6.77;;;6.07;;
2225;SDS011;1119;48.288;8.726;2023-02-15T08:26:13;6.27;;;5.47;;
2225;SDS011;1119;48.288;8.726;2023-02-15T08:28:42;6.47;;;4.60;;
2225;SDS011;1119;48.288;8.726;2023-02-15T08:31:11;8.63;;;6.77;;
2225;SDS011;1119;48.288;8.726;2023-02-15T08:33:40;4.67;;;4.23;;
2225;SDS011;1119;48.288;8.726;2023-02-15T08:36:12;7.93;;;6.03;;
2225;SDS011;1119;48.288;8.726;2023-02-15T08:38:41;5.57;;;4.90;;
2225;SDS011;1119;48.288;8.726;2023-02-15T08:41:09;5.00;;;4.60;;
2225;SDS011;1119;48.288;8.726;2023-02-15T08:43:41;11.13;;;6.10;;
2225;SDS011;1119;48.288;8.726;2023-02-15T08:46:11;10.67;;;5.53;;
2225;SDS011;1119;48.288;8.726;2023-02-15T08:48:39;5.60;;;5.10;;
2225;SDS011;1119;48.288;8.726;2023-02-15T08:51:08;9.43;;;4.93;;
2225;SDS011;1119;48.288;8.726;2023-02-15T08:53:38;7.17;;;4.90;;
2225;SDS011;1119;48.288;8.726;2023-02-15T08:56:06;6.10;;;4.30;;
2225;SDS011;1119;48.288;8.726;2023-02-15T08:58:35;7.20;;;6.27;;
2225;SDS011;1119;48.288;8.726;2023-02-15T09:01:07;6.70;;;5.80;;
2225;SDS011;1119;48.288;8.726;2023-02-15T09:03:37;6.47;;;5.50;;
2225;SDS011;1119;48.288;8.726;2023-02-15T09:06:05;5.90;;;5.15;;
2225;SDS011;1119;48.288;8.726;2023-02-15T09:08:33;7.95;;;6.60;;
2225;SDS011;1119;48.288;8.726;2023-02-15T09:11:08;7.80;;;6.00;;
2225;SDS011;1119;48.288;8.726;2023-02-15T09:13:38;10.27;;;7.20;;
2225;SDS011;1119;48.288;8.726;2023-02-15T09:16:06;6.67;;;5.80;;
2225;SDS011;1119;48.288;8.726;2023-02-15T09:18:37;9.77;;;7.30;;
2225;SDS011;1119;48.288;8.726;2023-02-15T09:21:06;16.23;;;12.80;;
2225;SDS011;1119;48.288;8.726;2023-02-15T09:23:36;18.60;;;14.87;;
2225;SDS011;1119;48.288;8.726;2023-02-15T09:26:04;32.70;;;22.07;;
2225;SDS011;1119;48.288;8.726;2023-02-15T09:28:32;45.30;;;23.93;;
2225;SDS011;1119;48.288;8.726;2023-02-15T09:31:07;21.83;;;13.93;;
2225;SDS011;1119;48.288;8.726;2023-02-15T09:33:37;14.43;;;11.03;;
2225;SDS011;1119;48.288;8.726;2023-02-15T09:36:14;14.37;;;8.23;;
2225;SDS011;1119;48.288;8.726;2023-02-15T09:38:44;12.63;;;8.93;;
2225;SDS011;1119;48.288;8.726;2023-02-15T09:41:18;11.30;;;8.43;;
2225;SDS011;1119;48.288;8.726;2023-02-15T09:44:07;8.60;;;7.70;;
2225;SDS011;1119;48.288;8.726;2023-02-15T09:46:48;8.30;;;7.43;;
2225;SDS011;1119;48.288;8.726;2023-02-15T09:49:44;7.73;;;7.00;;
2225;SDS011;1119;48.288;8.726;2023-02-15T09:55:32;9.33;;;7.33;;
2225;SDS011;1119;48.288;8.726;2023-02-15T09:58:13;8.80;;;5.90;;
2225;SDS011;1119;48.288;8.726;2023-02-15T10:00:54;8.13;;;7.33;;
2225;SDS011;1119;48.288;8.726;2023-02-15T10:03:40;8.53;;;7.73;;
2225;SDS011;1119;48.288;8.726;2023-02-15T10:06:35;8.57;;;7.07;;
2225;SDS011;1119;48.288;8.726;2023-02-15T10:09:12;9.00;;;6.97;;
2225;SDS011;1119;48.288;8.726;2023-02-15T10:11:57;15.63;;;7.63;;
2225;SDS011;1119;48.288;8.726;2023-02-15T10:14:46;9.07;;;6.87;;
2225;SDS011;1119;48.288;8.726;2023-02-15T10:17:44;7.43;;;6.27;;
2225;SDS011;1119;48.288;8.726;2023-02-15T10:20:33;7.00;;;6.30;;
2225;SDS011;1119;48.288;8.726;2023-02-15T10:23:12;14.83;;;6.97;;
2225;SDS011;1119;48.288;8.726;2023-02-15T10:26:16;7.43;;;6.90;;
2225;SDS011;1119;48.288;8.726;2023-02-15T10:28:46;7.60;;;6.93;;
2225;SDS011;1119;48.288;8.726;2023-02-15T10:31:22;8.73;;;7.93;;
2225;SDS011;1119;48.288;8.726;2023-02-15T10:33:57;16.17;;;10.23;;
2225;SDS011;1119;48.288;8.726;2023-02-15T10:36:46;6.93;;;5.50;;
2225;SDS011;1119;48.288;8.726;2023-02-15T10:39:38;9.87;;;6.43;;
2225;SDS011;1119;48.288;8.726;2023-02-15T10:42:18;6.37;;;5.83;;
2225;SDS011;1119;48.288;8.726;2023-02-15T10:44:58;9.53;;;8.43;;
2225;SDS011;1119;48.288;8.726;2023-02-15T10:47:49;6.60;;;6.10;;
2225;SDS011;1119;48.288;8.726;2023-02-15T10:50:30;7.80;;;6.83;;
2225;SDS011;1119;48.288;8.726;2023-02-15T10:53:14;6.87;;;5.77;;
2225;SDS011;1119;48.288;8.726;2023-02-15T10:55:56;8.07;;;6.17;;
2225;SDS011;1119;48.288;8.726;2023-02-15T10:58:39;7.27;;;6.57;;
2225;SDS011;1119;48.288;8.726;2023-02-15T11:01:22;6.90;;;6.37;;
2225;SDS011;1119;48.288;8.726;2023-02-15T11:04:01;10.50;;;7.37;;
2225;SDS011;1119;48.288;8.726;2023-02-15T11:07:02;6.00;;;5.40;;
2225;SDS011;1119;48.288;8.726;2023-02-15T11:09:36;5.57;;;5.10;;
2225;SDS011;1119;48.288;8.726;2023-02-15T11:12:10;7.43;;;6.83;;
2225;SDS011;1119;48.288;8.726;2023-02-15T11:14:43;8.50;;;7.20;;
2225;SDS011;1119;48.288;8.726;2023-02-15T11:17:15;6.00;;;5.50;;
2225;SDS011;1119;48.288;8.726;2023-02-15T11:19:50;4.93;;;4.63;;
2225;SDS011;1119;48.288;8.726;2023-02-15T11:22:25;5.57;;;5.07;;
2225;SDS011;1119;48.288;8.726;2023-02-15T11:24:53;5.63;;;5.13;;
2225;SDS011;1119;48.288;8.726;2023-02-15T11:27:25;6.17;;;5.30;;
2225;SDS011;1119;48.288;8.726;2023-02-15T11:29:57;5.30;;;4.77;;
2225;SDS011;1119;48.288;8.726;2023-02-15T11:32:28;5.60;;;5.20;;
2225;SDS011;1119;48.288;8.726;2023-02-15T11:34:59;5.80;;;5.27;;
2225;SDS011;1119;48.288;8.726;2023-02-15T11:37:33;7.03;;;5.40;;
2225;SDS011;1119;48.288;8.726;2023-02-15T11:40:13;6.13;;;5.43;;
2225;SDS011;1119;48.288;8.726;2023-02-15T11:42:48;4.77;;;4.47;;
2225;SDS011;1119;48.288;8.726;2023-02-15T11:45:26;5.77;;;5.47;;
2225;SDS011;1119;48.288;8.726;2023-02-15T11:47:55;5.27;;;4.97;;
2225;SDS011;1119;48.288;8.726;2023-02-15T11:50:25;6.63;;;6.10;;
2225;SDS011;1119;48.288;8.726;2023-02-15T11:52:56;5.00;;;4.70;;
2225;SDS011;1119;48.288;8.726;2023-02-15T11:55:28;5.73;;;5.23;;
2225;SDS011;1119;48.288;8.726;2023-02-15T11:57:59;5.40;;;5.10;;
2225;SDS011;1119;48.288;8.726;2023-02-15T12:00:35;5.20;;;4.70;;
2225;SDS011;1119;48.288;8.726;2023-02-15T12:03:11;5.40;;;4.97;;
2225;SDS011;1119;48.288;8.726;2023-02-15T12:05:44;5.30;;;4.90;;
2225;SDS011;1119;48.288;8.726;2023-02-15T12:08:18;5.13;;;4.73;;
2225;SDS011;1119;48.288;8.726;2023-02-15T12:10:52;5.67;;;5.17;;
2225;SDS011;1119;48.288;8.726;2023-02-15T12:13:27;5.30;;;4.43;;
2225;SDS011;1119;48.288;8.726;2023-02-15T12:15:55;6.33;;;5.83;;
2225;SDS011;1119;48.288;8.726;2023-02-15T12:18:31;4.60;;;4.37;;
2225;SDS011;1119;48.288;8.726;2023-02-15T12:21:05;5.10;;;4.83;;
2225;SDS011;1119;48.288;8.726;2023-02-15T12:23:39;5.60;;;5.20;;
2225;SDS011;1119;48.288;8.726;2023-02-15T12:26:13;4.20;;;4.00;;
2225;SDS011;1119;48.288;8.726;2023-02-15T12:28:42;4.70;;;4.40;;
2225;SDS011;1119;48.288;8.726;2023-02-15T12:31:19;4.53;;;4.13;;
2225;SDS011;1119;48.288;8.726;2023-02-15T12:33:49;4.20;;;3.90;;
2225;SDS011;1119;48.288;8.726;2023-02-15T12:36:19;4.33;;;3.93;;
2225;SDS011;1119;48.288;8.726;2023-02-15T12:39:01;4.40;;;4.20;;
2225;SDS011;1119;48.288;8.726;2023-02-15T12:41:44;4.20;;;4.00;;
2225;SDS011;1119;48.288;8.726;2023-02-15T12:44:17;4.53;;;4.33;;
2225;SDS011;1119;48.288;8.726;2023-02-15T12:46:55;3.93;;;3.73;;
2225;SDS011;1119;48.288;8.726;2023-02-15T12:49:25;4.53;;;4.13;;
2225;SDS011;1119;48.288;8.726;2023-02-15T12:51:55;4.57;;;4.23;;
2225;SDS011;1119;48.288;8.726;2023-02-15T12:54:29;5.90;;;5.40;;
2225;SDS011;1119;48.288;8.726;2023-02-15T12:59:58;5.17;;;4.77;;
2225;SDS011;1119;48.288;8.726;2023-02-15T13:02:31;4.00;;;3.80;;
2225;SDS011;1119;48.288;8.726;2023-02-15T13:05:14;5.00;;;4.70;;
2225;SDS011;1119;48.288;8.726;2023-02-15T13:07:57;5.43;;;5.03;;
2225;SDS011;1119;48.288;8.726;2023-02-15T13:10:28;4.60;;;4.40;;
2225;SDS011;1119;48.288;8.726;2023-02-15T13:12:58;9.00;;;5.03;;
2225;SDS011;1119;48.288;8.726;2023-02-15T13:15:34;4.87;;;4.53;;
2225;SDS011;1119;48.288;8.726;2023-02-15T13:18:04;6.33;;;5.93;;
2225;SDS011;1119;48.288;8.726;2023-02-15T13:20:38;4.50;;;4.30;;
2225;SDS011;1119;48.288;8.726;2023-02-15T13:23:09;4.20;;;4.00;;
2225;SDS011;1119;48.288;8.726;2023-02-15T13:25:52;5.97;;;5.43;;
2225;SDS011;1119;48.288;8.726;2023-02-15T13:28:23;24.03;;;21.50;;
2225;SDS011;1119;48.288;8.726;2023-02-15T13:31:11;13.63;;;12.23;;
2225;SDS011;1119;48.288;8.726;2023-02-15T13:33:41;5.20;;;5.00;;
2225;SDS011;1119;48.288;8.726;2023-02-15T13:36:13;5.13;;;4.70;;
2225;SDS011;1119;48.288;8.726;2023-02-15T13:38:59;5.20;;;5.00;;
2225;SDS011;1119;48.288;8.726;2023-02-15T13:41:42;5.63;;;5.30;;
2225;SDS011;1119;48.288;8.726;2023-02-15T13:44:21;6.53;;;5.00;;
2225;SDS011;1119;48.288;8.726;2023-02-15T13:47:22;6.27;;;5.30;;
2225;SDS011;1119;48.288;8.726;2023-02-15T13:50:04;4.87;;;4.67;;
2225;SDS011;1119;48.288;8.726;2023-02-15T13:52:46;5.30;;;5.03;;
2225;SDS011;1119;48.288;8.726;2023-02-15T13:55:24;5.50;;;5.20;;
2225;SDS011;1119;48.288;8.726;2023-02-15T14:01:19;5.10;;;4.90;;
2225;SDS011;1119;48.288;8.726;2023-02-15T14:04:07;5.20;;;4.90;;
2225;SDS011;1119;48.288;8.726;2023-02-15T14:06:58;5.23;;;4.97;;
2225;SDS011;1119;48.288;8.726;2023-02-15T14:09:52;6.30;;;5.23;;
2225;SDS011;1119;48.288;8.726;2023-02-15T14:12:38;5.30;;;5.00;;
2225;SDS011;1119;48.288;8.726;2023-02-15T14:15:24;4.97;;;4.73;;
2225;SDS011;1119;48.288;8.726;2023-02-15T14:18:01;4.97;;;4.67;;
2225;SDS011;1119;48.288;8.726;2023-02-15T14:20:50;5.10;;;4.90;;
2225;SDS011;1119;48.288;8.726;2023-02-15T14:23:32;4.77;;;4.50;;
2225;SDS011;1119;48.288;8.726;2023-02-15T14:26:11;6.93;;;4.50;;
2225;SDS011;1119;48.288;8.726;2023-02-15T14:28:49;5.23;;;4.93;;
2225;SDS011;1119;48.288;8.726;2023-02-15T14:31:26;4.73;;;4.53;;
2225;SDS011;1119;48.288;8.726;2023-02-15T14:33:59;4.50;;;4.30;;
2225;SDS011;1119;48.288;8.726;2023-02-15T14:36:27;4.70;;;4.60;;
2225;SDS011;1119;48.288;8.726;2023-02-15T14:38:59;4.83;;;4.63;;
2225;SDS011;1119;48.288;8.726;2023-02-15T14:41:57;5.10;;;4.83;;
2225;SDS011;1119;48.288;8.726;2023-02-15T14:44:30;5.30;;;5.00;;
2225;SDS011;1119;48.288;8.726;2023-02-15T14:47:04;5.83;;;3.93;;
2225;SDS011;1119;48.288;8.726;2023-02-15T14:49:38;5.30;;;4.83;;
2225;SDS011;1119;48.288;8.726;2023-02-15T14:52:07;7.30;;;4.40;;
2225;SDS011;1119;48.288;8.726;2023-02-15T14:54:52;4.70;;;4.50;;
2225;SDS011;1119;48.288;8.726;2023-02-15T14:57:25;3.60;;;3.50;;
2225;SDS011;1119;48.288;8.726;2023-02-15T14:59:58;5.03;;;4.63;;
2225;SDS011;1119;48.288;8.726;2023-02-15T15:02:42;5.23;;;5.03;;
2225;SDS011;1119;48.288;8.726;2023-02-15T15:05:16;4.63;;;4.17;;
2225;SDS011;1119;48.288;8.726;2023-02-15T15:07:49;4.40;;;4.20;;
2225;SDS011;1119;48.288;8.726;2023-02-15T15:10:39;4.40;;;4.07;;
2225;SDS011;1119;48.288;8.726;2023-02-15T15:22:39;4.10;;;3.90;;
2225;SDS011;1119;48.288;8.726;2023-02-15T15:25:12;4.67;;;4.47;;
2225;SDS011;1119;48.288;8.726;2023-02-15T15:28:15;4.57;;;4.27;;
2225;SDS011;1119;48.288;8.726;2023-02-15T15:31:23;3.77;;;3.57;;
2225;SDS011;1119;48.288;8.726;2023-02-15T15:37:45;4.40;;;4.00;;
2225;SDS011;1119;48.288;8.726;2023-02-15T15:41:03;4.13;;;3.93;;
2225;SDS011;1119;48.288;8.726;2023-02-15T15:46:54;5.07;;;4.57;;
2225;SDS011;1119;48.288;8.726;2023-02-15T15:49:49;4.83;;;4.63;;
2225;SDS011;1119;48.288;8.726;2023-02-15T15:52:21;4.97;;;4.77;;
2225;SDS011;1119;48.288;8.726;2023-02-15T15:54:50;4.00;;;3.80;;
2225;SDS011;1119;48.288;8.726;2023-02-15T15:57:26;4.30;;;4.10;;
2225;SDS011;1119;48.288;8.726;2023-02-15T15:59:57;4.90;;;4.60;;
2225;SDS011;1119;48.288;8.726;2023-02-15T16:02:25;5.53;;;5.10;;
2225;SDS011;1119;48.288;8.726;2023-02-15T16:04:53;4.13;;;3.90;;
2225;SDS011;1119;48.288;8.726;2023-02-15T16:07:24;5.00;;;4.70;;
2225;SDS011;1119;48.288;8.726;2023-02-15T16:09:56;5.60;;;5.30;;
2225;SDS011;1119;48.288;8.726;2023-02-15T16:12:30;5.50;;;5.10;;
2225;SDS011;1119;48.288;8.726;2023-02-15T16:15:04;8.17;;;7.40;;
2225;SDS011;1119;48.288;8.726;2023-02-15T16:17:42;7.27;;;6.67;;
2225;SDS011;1119;48.288;8.726;2023-02-15T16:20:14;9.60;;;8.70;;
2225;SDS011;1119;48.288;8.726;2023-02-15T16:22:45;33.30;;;26.00;;